sensor_id;sensor_type;location;lat;lon;timestamp;temperature;humidity
5621;DHT22;2832;50.864;12.186;2023-08-08T00:02:16;19.40;99.90
5621;DHT22;2832;50.864;12.186;2023-08-08T00:04:45;19.40;99.90
5621;DHT22;2832;50.864;12.186;2023-08-08T00:07:16;19.40;99.90
5621;DHT22;2832;50.864;12.186;2023-08-08T00:09:48;19.40;99.90
5621;DHT22;2832;50.864;12.186;2023-08-08T00:12:21;19.40;99.90
5621;DHT22;2832;50.864;12.186;2023-08-08T00:14:52;19.40;99.90
5621;DHT22;2832;50.864;12.186;2023-08-08T00:17:20;19.40;99.90
5621;DHT22;2832;50.864;12.186;2023-08-08T00:19:56;19.30;99.90
5621;DHT22;2832;50.864;12.186;2023-08-08T00:22:30;19.30;99.90
5621;DHT22;2832;50.864;12.186;2023-08-08T00:25:29;19.40;99.90
5621;DHT22;2832;50.864;12.186;2023-08-08T00:28:01;19.30;99.90
5621;DHT22;2832;50.864;12.186;2023-08-08T00:30:30;19.30;99.90
5621;DHT22;2832;50.864;12.186;2023-08-08T00:33:00;19.30;99.90
5621;DHT22;2832;50.864;12.186;2023-08-08T00:35:31;19.30;99.90
5621;DHT22;2832;50.864;12.186;2023-08-08T00:38:05;19.30;99.90
5621;DHT22;2832;50.864;12.186;2023-08-08T00:40:37;19.30;99.90
5621;DHT22;2832;50.864;12.186;2023-08-08T00:43:07;19.30;99.90
5621;DHT22;2832;50.864;12.186;2023-08-08T00:45:37;19.30;99.90
5621;DHT22;2832;50.864;12.186;2023-08-08T00:48:06;19.30;99.90
5621;DHT22;2832;50.864;12.186;2023-08-08T00:50:37;19.30;99.90
5621;DHT22;2832;50.864;12.186;2023-08-08T00:53:07;19.30;99.90
5621;DHT22;2832;50.864;12.186;2023-08-08T00:55:38;19.20;99.90
5621;DHT22;2832;50.864;12.186;2023-08-08T00:58:07;19.20;99.90
5621;DHT22;2832;50.864;12.186;2023-08-08T01:00:42;19.20;99.90
5621;DHT22;2832;50.864;12.186;2023-08-08T01:03:10;19.20;99.90
5621;DHT22;2832;50.864;12.186;2023-08-08T01:05:43;19.20;99.90
5621;DHT22;2832;50.864;12.186;2023-08-08T01:08:19;19.20;99.90
5621;DHT22;2832;50.864;12.186;2023-08-08T01:10:52;19.20;99.90
5621;DHT22;2832;50.864;12.186;2023-08-08T01:13:23;19.20;99.90
5621;DHT22;2832;50.864;12.186;2023-08-08T01:16:04;19.10;99.90
5621;DHT22;2832;50.864;12.186;2023-08-08T01:18:37;19.10;99.90
5621;DHT22;2832;50.864;12.186;2023-08-08T01:21:09;19.10;99.90
5621;DHT22;2832;50.864;12.186;2023-08-08T01:23:43;19.10;99.90
5621;DHT22;2832;50.864;12.186;2023-08-08T01:26:18;19.10;99.90
5621;DHT22;2832;50.864;12.186;2023-08-08T01:28:48;19.10;99.90
5621;DHT22;2832;50.864;12.186;2023-08-08T01:31:25;19.00;99.90
5621;DHT22;2832;50.864;12.186;2023-08-08T01:34:02;19.10;99.90
5621;DHT22;2832;50.864;12.186;2023-08-08T01:36:35;19.10;99.90
5621;DHT22;2832;50.864;12.186;2023-08-08T01:39:09;19.10;99.90
5621;DHT22;2832;50.864;12.186;2023-08-08T01:41:42;19.10;99.90
5621;DHT22;2832;50.864;12.186;2023-08-08T01:44:14;19.10;99.90
5621;DHT22;2832;50.864;12.186;2023-08-08T01:46:42;19.10;99.90
5621;DHT22;2832;50.864;12.186;2023-08-08T01:49:11;19.00;99.90
5621;DHT22;2832;50.864;12.186;2023-08-08T01:51:45;19.00;99.90
5621;DHT22;2832;50.864;12.186;2023-08-08T01:54:16;19.00;99.90
5621;DHT22;2832;50.864;12.186;2023-08-08T01:56:45;19.00;99.90
5621;DHT22;2832;50.864;12.186;2023-08-08T01:59:14;18.90;99.90
5621;DHT22;2832;50.864;12.186;2023-08-08T02:01:43;18.90;99.90
5621;DHT22;2832;50.864;12.186;2023-08-08T02:04:12;19.00;99.90
5621;DHT22;2832;50.864;12.186;2023-08-08T02:06:39;19.00;99.90
5621;DHT22;2832;50.864;12.186;2023-08-08T02:09:07;19.00;99.90
5621;DHT22;2832;50.864;12.186;2023-08-08T02:11:35;19.00;99.90
5621;DHT22;2832;50.864;12.186;2023-08-08T02:14:04;19.00;99.90
5621;DHT22;2832;50.864;12.186;2023-08-08T02:16:32;19.00;99.90
5621;DHT22;2832;50.864;12.186;2023-08-08T02:19:00;18.90;99.90
5621;DHT22;2832;50.864;12.186;2023-08-08T02:21:29;18.90;99.90
5621;DHT22;2832;50.864;12.186;2023-08-08T02:23:59;18.90;99.90
5621;DHT22;2832;50.864;12.186;2023-08-08T02:26:27;18.90;99.90
5621;DHT22;2832;50.864;12.186;2023-08-08T02:28:55;19.00;99.90
5621;DHT22;2832;50.864;12.186;2023-08-08T02:31:43;18.90;99.90
5621;DHT22;2832;50.864;12.186;2023-08-08T02:34:11;18.90;99.90
5621;DHT22;2832;50.864;12.186;2023-08-08T02:36:39;18.90;99.90
5621;DHT22;2832;50.864;12.186;2023-08-08T02:39:08;18.80;99.90
5621;DHT22;2832;50.864;12.186;2023-08-08T02:41:36;18.80;99.90
5621;DHT22;2832;50.864;12.186;2023-08-08T02:44:04;18.80;99.90
5621;DHT22;2832;50.864;12.186;2023-08-08T02:46:33;18.70;99.90
5621;DHT22;2832;50.864;12.186;2023-08-08T02:49:03;18.70;99.90
5621;DHT22;2832;50.864;12.186;2023-08-08T02:51:31;18.70;99.90
5621;DHT22;2832;50.864;12.186;2023-08-08T02:54:00;18.70;99.90
5621;DHT22;2832;50.864;12.186;2023-08-08T02:56:29;18.70;99.90
5621;DHT22;2832;50.864;12.186;2023-08-08T02:58:57;18.80;99.90
5621;DHT22;2832;50.864;12.186;2023-08-08T03:01:27;18.80;99.90
5621;DHT22;2832;50.864;12.186;2023-08-08T03:04:10;18.70;99.90
5621;DHT22;2832;50.864;12.186;2023-08-08T03:06:38;18.70;99.90
5621;DHT22;2832;50.864;12.186;2023-08-08T03:09:24;18.70;99.90
5621;DHT22;2832;50.864;12.186;2023-08-08T03:12:02;18.70;99.90
5621;DHT22;2832;50.864;12.186;2023-08-08T03:14:32;18.60;99.90
5621;DHT22;2832;50.864;12.186;2023-08-08T03:17:00;18.60;99.90
5621;DHT22;2832;50.864;12.186;2023-08-08T03:19:30;18.60;99.90
5621;DHT22;2832;50.864;12.186;2023-08-08T03:21:58;18.60;99.90
5621;DHT22;2832;50.864;12.186;2023-08-08T03:24:27;18.60;99.90
5621;DHT22;2832;50.864;12.186;2023-08-08T03:26:57;18.60;99.90
5621;DHT22;2832;50.864;12.186;2023-08-08T03:29:25;18.70;99.90
5621;DHT22;2832;50.864;12.186;2023-08-08T03:31:56;18.60;99.90
5621;DHT22;2832;50.864;12.186;2023-08-08T03:34:24;18.60;99.90
5621;DHT22;2832;50.864;12.186;2023-08-08T03:37:23;18.60;99.90
5621;DHT22;2832;50.864;12.186;2023-08-08T03:39:53;18.60;99.90
5621;DHT22;2832;50.864;12.186;2023-08-08T03:42:42;18.60;99.90
5621;DHT22;2832;50.864;12.186;2023-08-08T03:45:10;18.50;99.90
5621;DHT22;2832;50.864;12.186;2023-08-08T03:47:39;18.50;99.90
5621;DHT22;2832;50.864;12.186;2023-08-08T03:50:08;18.60;99.90
5621;DHT22;2832;50.864;12.186;2023-08-08T03:52:38;18.50;99.90
5621;DHT22;2832;50.864;12.186;2023-08-08T03:55:06;18.60;99.90
5621;DHT22;2832;50.864;12.186;2023-08-08T03:57:36;18.60;99.90
5621;DHT22;2832;50.864;12.186;2023-08-08T04:00:06;18.50;99.90
5621;DHT22;2832;50.864;12.186;2023-08-08T04:02:34;18.60;99.90
5621;DHT22;2832;50.864;12.186;2023-08-08T04:05:03;18.60;99.90
5621;DHT22;2832;50.864;12.186;2023-08-08T04:07:31;18.50;99.90
5621;DHT22;2832;50.864;12.186;2023-08-08T04:10:10;18.60;99.90
5621;DHT22;2832;50.864;12.186;2023-08-08T04:12:42;18.50;99.90
5621;DHT22;2832;50.864;12.186;2023-08-08T04:15:21;18.50;99.90
5621;DHT22;2832;50.864;12.186;2023-08-08T04:17:52;18.50;99.90
5621;DHT22;2832;50.864;12.186;2023-08-08T04:20:32;18.50;99.90
5621;DHT22;2832;50.864;12.186;2023-08-08T04:23:10;18.40;99.90
5621;DHT22;2832;50.864;12.186;2023-08-08T04:25:45;18.40;99.90
5621;DHT22;2832;50.864;12.186;2023-08-08T04:28:29;18.40;99.90
5621;DHT22;2832;50.864;12.186;2023-08-08T04:30:58;18.40;99.90
5621;DHT22;2832;50.864;12.186;2023-08-08T04:33:26;18.40;99.90
5621;DHT22;2832;50.864;12.186;2023-08-08T04:35:55;18.40;99.90
5621;DHT22;2832;50.864;12.186;2023-08-08T04:38:23;18.40;99.90
5621;DHT22;2832;50.864;12.186;2023-08-08T04:40:53;18.40;99.90
5621;DHT22;2832;50.864;12.186;2023-08-08T04:43:21;18.40;99.90
5621;DHT22;2832;50.864;12.186;2023-08-08T04:45:51;18.40;99.90
5621;DHT22;2832;50.864;12.186;2023-08-08T04:48:21;18.40;99.90
5621;DHT22;2832;50.864;12.186;2023-08-08T04:50:51;18.40;99.90
5621;DHT22;2832;50.864;12.186;2023-08-08T04:53:26;18.40;99.90
5621;DHT22;2832;50.864;12.186;2023-08-08T04:55:55;18.30;99.90
5621;DHT22;2832;50.864;12.186;2023-08-08T04:58:24;18.30;99.90
5621;DHT22;2832;50.864;12.186;2023-08-08T05:00:52;18.30;99.90
5621;DHT22;2832;50.864;12.186;2023-08-08T05:03:21;18.40;99.90
5621;DHT22;2832;50.864;12.186;2023-08-08T05:05:49;18.30;99.90
5621;DHT22;2832;50.864;12.186;2023-08-08T05:08:17;18.30;99.90
5621;DHT22;2832;50.864;12.186;2023-08-08T05:10:46;18.40;99.90
5621;DHT22;2832;50.864;12.186;2023-08-08T05:13:16;18.30;99.90
5621;DHT22;2832;50.864;12.186;2023-08-08T05:15:45;18.30;99.90
5621;DHT22;2832;50.864;12.186;2023-08-08T05:18:12;18.30;99.90
5621;DHT22;2832;50.864;12.186;2023-08-08T05:20:43;18.40;99.90
5621;DHT22;2832;50.864;12.186;2023-08-08T05:23:13;18.30;99.90
5621;DHT22;2832;50.864;12.186;2023-08-08T05:25:41;18.30;99.90
5621;DHT22;2832;50.864;12.186;2023-08-08T05:28:11;18.20;99.90
5621;DHT22;2832;50.864;12.186;2023-08-08T05:30:47;18.20;99.90
5621;DHT22;2832;50.864;12.186;2023-08-08T05:33:16;18.20;99.90
5621;DHT22;2832;50.864;12.186;2023-08-08T05:35:45;18.20;99.90
5621;DHT22;2832;50.864;12.186;2023-08-08T05:38:13;18.30;99.90
5621;DHT22;2832;50.864;12.186;2023-08-08T05:40:45;18.30;99.90
5621;DHT22;2832;50.864;12.186;2023-08-08T05:43:16;18.40;99.90
5621;DHT22;2832;50.864;12.186;2023-08-08T05:45:46;18.40;99.90
5621;DHT22;2832;50.864;12.186;2023-08-08T05:48:14;18.30;99.90
5621;DHT22;2832;50.864;12.186;2023-08-08T05:50:42;18.30;99.90
5621;DHT22;2832;50.864;12.186;2023-08-08T05:53:10;18.30;99.90
5621;DHT22;2832;50.864;12.186;2023-08-08T05:55:40;18.20;99.90
5621;DHT22;2832;50.864;12.186;2023-08-08T05:58:10;18.20;99.90
5621;DHT22;2832;50.864;12.186;2023-08-08T06:00:40;18.20;99.90
5621;DHT22;2832;50.864;12.186;2023-08-08T06:03:11;18.20;99.90
5621;DHT22;2832;50.864;12.186;2023-08-08T06:05:41;18.20;99.90
5621;DHT22;2832;50.864;12.186;2023-08-08T06:08:16;18.20;99.90
5621;DHT22;2832;50.864;12.186;2023-08-08T06:10:44;18.20;99.90
5621;DHT22;2832;50.864;12.186;2023-08-08T06:13:13;18.20;99.90
5621;DHT22;2832;50.864;12.186;2023-08-08T06:15:41;18.20;99.90
5621;DHT22;2832;50.864;12.186;2023-08-08T06:18:12;18.20;99.90
5621;DHT22;2832;50.864;12.186;2023-08-08T06:20:43;18.20;99.90
5621;DHT22;2832;50.864;12.186;2023-08-08T06:23:12;18.10;99.90
5621;DHT22;2832;50.864;12.186;2023-08-08T06:25:48;18.20;99.90
5621;DHT22;2832;50.864;12.186;2023-08-08T06:28:22;18.10;99.90
5621;DHT22;2832;50.864;12.186;2023-08-08T06:30:50;18.00;99.90
5621;DHT22;2832;50.864;12.186;2023-08-08T06:33:20;18.00;99.90
5621;DHT22;2832;50.864;12.186;2023-08-08T06:35:50;18.00;99.90
5621;DHT22;2832;50.864;12.186;2023-08-08T06:38:18;18.00;99.90
5621;DHT22;2832;50.864;12.186;2023-08-08T06:40:46;18.00;99.90
5621;DHT22;2832;50.864;12.186;2023-08-08T06:43:15;18.10;99.90
5621;DHT22;2832;50.864;12.186;2023-08-08T06:45:44;18.00;99.90
5621;DHT22;2832;50.864;12.186;2023-08-08T06:48:12;18.00;99.90
5621;DHT22;2832;50.864;12.186;2023-08-08T06:50:42;18.00;99.90
5621;DHT22;2832;50.864;12.186;2023-08-08T06:53:18;18.00;99.90
5621;DHT22;2832;50.864;12.186;2023-08-08T06:55:46;18.00;99.90
5621;DHT22;2832;50.864;12.186;2023-08-08T06:58:14;18.10;99.90
5621;DHT22;2832;50.864;12.186;2023-08-08T07:00:42;18.00;99.90
5621;DHT22;2832;50.864;12.186;2023-08-08T07:03:15;18.00;99.90
5621;DHT22;2832;50.864;12.186;2023-08-08T07:05:57;18.00;99.90
5621;DHT22;2832;50.864;12.186;2023-08-08T07:08:28;18.00;99.90
5621;DHT22;2832;50.864;12.186;2023-08-08T07:10:57;18.00;99.90
5621;DHT22;2832;50.864;12.186;2023-08-08T07:13:25;17.90;99.90
5621;DHT22;2832;50.864;12.186;2023-08-08T07:15:53;18.00;99.90
5621;DHT22;2832;50.864;12.186;2023-08-08T07:18:23;18.00;99.90
5621;DHT22;2832;50.864;12.186;2023-08-08T07:21:02;18.00;99.90
5621;DHT22;2832;50.864;12.186;2023-08-08T07:23:39;18.00;99.90
5621;DHT22;2832;50.864;12.186;2023-08-08T07:26:10;18.00;99.90
5621;DHT22;2832;50.864;12.186;2023-08-08T07:28:41;18.00;99.90
5621;DHT22;2832;50.864;12.186;2023-08-08T07:31:16;18.00;99.90
5621;DHT22;2832;50.864;12.186;2023-08-08T07:33:51;18.00;99.90
5621;DHT22;2832;50.864;12.186;2023-08-08T07:36:26;18.00;99.90
5621;DHT22;2832;50.864;12.186;2023-08-08T07:38:59;18.00;99.90
5621;DHT22;2832;50.864;12.186;2023-08-08T07:41:30;18.00;99.90
5621;DHT22;2832;50.864;12.186;2023-08-08T07:43:58;17.90;99.90
5621;DHT22;2832;50.864;12.186;2023-08-08T07:46:29;17.90;99.90
5621;DHT22;2832;50.864;12.186;2023-08-08T07:49:06;17.90;99.90
5621;DHT22;2832;50.864;12.186;2023-08-08T07:51:51;17.90;99.90
5621;DHT22;2832;50.864;12.186;2023-08-08T07:54:28;17.90;99.90
5621;DHT22;2832;50.864;12.186;2023-08-08T07:57:08;17.90;99.90
5621;DHT22;2832;50.864;12.186;2023-08-08T07:59:49;17.80;99.90
5621;DHT22;2832;50.864;12.186;2023-08-08T08:02:39;17.80;99.90
5621;DHT22;2832;50.864;12.186;2023-08-08T08:05:25;17.80;99.90
5621;DHT22;2832;50.864;12.186;2023-08-08T08:08:20;17.90;99.90
5621;DHT22;2832;50.864;12.186;2023-08-08T08:10:58;17.90;99.90
5621;DHT22;2832;50.864;12.186;2023-08-08T08:13:48;17.90;99.90
5621;DHT22;2832;50.864;12.186;2023-08-08T08:16:30;17.90;99.90
5621;DHT22;2832;50.864;12.186;2023-08-08T08:19:07;17.90;99.90
5621;DHT22;2832;50.864;12.186;2023-08-08T08:21:36;17.90;99.90
5621;DHT22;2832;50.864;12.186;2023-08-08T08:24:07;17.90;99.90
5621;DHT22;2832;50.864;12.186;2023-08-08T08:26:35;17.90;99.90
5621;DHT22;2832;50.864;12.186;2023-08-08T08:29:04;17.80;99.90
5621;DHT22;2832;50.864;12.186;2023-08-08T08:31:37;17.90;99.90
5621;DHT22;2832;50.864;12.186;2023-08-08T08:34:05;17.90;99.90
5621;DHT22;2832;50.864;12.186;2023-08-08T08:36:33;17.90;99.90
5621;DHT22;2832;50.864;12.186;2023-08-08T08:39:03;17.90;99.90
5621;DHT22;2832;50.864;12.186;2023-08-08T08:41:36;17.90;99.90
5621;DHT22;2832;50.864;12.186;2023-08-08T08:44:09;17.90;99.90
5621;DHT22;2832;50.864;12.186;2023-08-08T08:46:43;17.80;99.90
5621;DHT22;2832;50.864;12.186;2023-08-08T08:49:23;17.80;99.90
5621;DHT22;2832;50.864;12.186;2023-08-08T08:51:56;17.80;99.90
5621;DHT22;2832;50.864;12.186;2023-08-08T08:54:29;17.90;99.90
5621;DHT22;2832;50.864;12.186;2023-08-08T08:56:59;17.90;99.90
5621;DHT22;2832;50.864;12.186;2023-08-08T08:59:28;17.90;99.90
5621;DHT22;2832;50.864;12.186;2023-08-08T09:01:57;17.90;99.90
5621;DHT22;2832;50.864;12.186;2023-08-08T09:04:28;17.90;99.90
5621;DHT22;2832;50.864;12.186;2023-08-08T09:06:57;17.90;99.90
5621;DHT22;2832;50.864;12.186;2023-08-08T09:09:34;17.90;99.90
5621;DHT22;2832;50.864;12.186;2023-08-08T09:12:10;17.90;99.90
5621;DHT22;2832;50.864;12.186;2023-08-08T09:14:42;17.90;99.90
5621;DHT22;2832;50.864;12.186;2023-08-08T09:17:13;17.80;99.90
5621;DHT22;2832;50.864;12.186;2023-08-08T09:19:58;17.80;99.90
5621;DHT22;2832;50.864;12.186;2023-08-08T09:22:35;17.90;99.90
5621;DHT22;2832;50.864;12.186;2023-08-08T09:25:06;17.90;99.90
5621;DHT22;2832;50.864;12.186;2023-08-08T09:27:37;18.00;99.90
5621;DHT22;2832;50.864;12.186;2023-08-08T09:30:16;18.00;99.90
5621;DHT22;2832;50.864;12.186;2023-08-08T09:32:44;18.00;99.90
5621;DHT22;2832;50.864;12.186;2023-08-08T09:35:13;18.00;99.90
5621;DHT22;2832;50.864;12.186;2023-08-08T09:37:43;18.00;99.90
5621;DHT22;2832;50.864;12.186;2023-08-08T09:40:14;18.00;99.90
5621;DHT22;2832;50.864;12.186;2023-08-08T09:42:57;18.00;99.90
5621;DHT22;2832;50.864;12.186;2023-08-08T09:45:35;18.00;99.90
5621;DHT22;2832;50.864;12.186;2023-08-08T09:48:06;18.00;99.90
5621;DHT22;2832;50.864;12.186;2023-08-08T09:50:41;17.90;99.90
5621;DHT22;2832;50.864;12.186;2023-08-08T09:53:22;17.90;99.90
5621;DHT22;2832;50.864;12.186;2023-08-08T09:55:52;18.00;99.90
5621;DHT22;2832;50.864;12.186;2023-08-08T09:58:30;18.00;99.90
5621;DHT22;2832;50.864;12.186;2023-08-08T10:01:12;18.00;99.90
5621;DHT22;2832;50.864;12.186;2023-08-08T10:03:53;18.00;99.90
5621;DHT22;2832;50.864;12.186;2023-08-08T10:06:31;18.00;99.90
5621;DHT22;2832;50.864;12.186;2023-08-08T10:09:01;18.00;99.90
5621;DHT22;2832;50.864;12.186;2023-08-08T10:11:35;18.00;99.90
5621;DHT22;2832;50.864;12.186;2023-08-08T10:14:35;18.00;99.90
5621;DHT22;2832;50.864;12.186;2023-08-08T10:17:13;18.10;99.90
5621;DHT22;2832;50.864;12.186;2023-08-08T10:19:55;18.00;99.90
5621;DHT22;2832;50.864;12.186;2023-08-08T10:22:44;18.00;99.90
5621;DHT22;2832;50.864;12.186;2023-08-08T10:25:37;18.00;99.90
5621;DHT22;2832;50.864;12.186;2023-08-08T10:28:13;18.00;99.90
5621;DHT22;2832;50.864;12.186;2023-08-08T10:31:00;18.10;99.90
5621;DHT22;2832;50.864;12.186;2023-08-08T10:33:43;18.00;99.90
5621;DHT22;2832;50.864;12.186;2023-08-08T10:36:11;18.10;99.90
5621;DHT22;2832;50.864;12.186;2023-08-08T10:38:43;18.10;99.90
5621;DHT22;2832;50.864;12.186;2023-08-08T10:41:26;18.00;99.90
5621;DHT22;2832;50.864;12.186;2023-08-08T10:44:09;18.00;99.90
5621;DHT22;2832;50.864;12.186;2023-08-08T10:46:43;18.00;99.90
5621;DHT22;2832;50.864;12.186;2023-08-08T10:49:12;18.00;99.90
5621;DHT22;2832;50.864;12.186;2023-08-08T10:51:45;18.00;99.90
5621;DHT22;2832;50.864;12.186;2023-08-08T10:54:19;18.10;99.90
5621;DHT22;2832;50.864;12.186;2023-08-08T10:56:57;18.10;99.90
5621;DHT22;2832;50.864;12.186;2023-08-08T10:59:27;18.10;99.90
5621;DHT22;2832;50.864;12.186;2023-08-08T11:02:01;18.20;99.90
5621;DHT22;2832;50.864;12.186;2023-08-08T11:04:35;18.20;99.90
5621;DHT22;2832;50.864;12.186;2023-08-08T11:07:05;18.10;99.90
5621;DHT22;2832;50.864;12.186;2023-08-08T11:09:34;18.20;99.90
5621;DHT22;2832;50.864;12.186;2023-08-08T11:12:04;18.20;99.90
5621;DHT22;2832;50.864;12.186;2023-08-08T11:14:38;18.20;99.90
5621;DHT22;2832;50.864;12.186;2023-08-08T11:17:10;18.20;99.90
5621;DHT22;2832;50.864;12.186;2023-08-08T11:19:45;18.20;99.90
5621;DHT22;2832;50.864;12.186;2023-08-08T11:22:24;18.20;99.90
5621;DHT22;2832;50.864;12.186;2023-08-08T11:25:02;18.20;99.90
5621;DHT22;2832;50.864;12.186;2023-08-08T11:27:38;18.20;99.90
5621;DHT22;2832;50.864;12.186;2023-08-08T11:30:17;18.20;99.90
5621;DHT22;2832;50.864;12.186;2023-08-08T11:32:54;18.20;99.90
5621;DHT22;2832;50.864;12.186;2023-08-08T11:35:24;18.30;99.90
5621;DHT22;2832;50.864;12.186;2023-08-08T11:38:00;18.30;99.90
5621;DHT22;2832;50.864;12.186;2023-08-08T11:40:30;18.20;99.90
5621;DHT22;2832;50.864;12.186;2023-08-08T11:43:00;18.30;99.90
5621;DHT22;2832;50.864;12.186;2023-08-08T11:45:28;18.30;99.90
5621;DHT22;2832;50.864;12.186;2023-08-08T11:48:02;18.30;99.90
5621;DHT22;2832;50.864;12.186;2023-08-08T11:50:31;18.30;99.90
5621;DHT22;2832;50.864;12.186;2023-08-08T11:52:59;18.30;99.90
5621;DHT22;2832;50.864;12.186;2023-08-08T11:55:31;18.30;99.90
5621;DHT22;2832;50.864;12.186;2023-08-08T11:58:02;18.30;99.90
5621;DHT22;2832;50.864;12.186;2023-08-08T12:00:31;18.30;99.90
5621;DHT22;2832;50.864;12.186;2023-08-08T12:03:13;18.40;99.90
5621;DHT22;2832;50.864;12.186;2023-08-08T12:05:46;18.30;99.90
5621;DHT22;2832;50.864;12.186;2023-08-08T12:08:19;18.30;99.90
5621;DHT22;2832;50.864;12.186;2023-08-08T12:10:56;18.40;99.90
5621;DHT22;2832;50.864;12.186;2023-08-08T12:13:27;18.40;99.90
5621;DHT22;2832;50.864;12.186;2023-08-08T12:15:58;18.40;99.90
5621;DHT22;2832;50.864;12.186;2023-08-08T12:18:30;18.40;99.90
5621;DHT22;2832;50.864;12.186;2023-08-08T12:20:58;18.40;99.90
5621;DHT22;2832;50.864;12.186;2023-08-08T12:23:27;18.40;99.90
5621;DHT22;2832;50.864;12.186;2023-08-08T12:25:58;18.40;99.90
5621;DHT22;2832;50.864;12.186;2023-08-08T12:28:32;18.40;99.90
5621;DHT22;2832;50.864;12.186;2023-08-08T12:31:06;18.30;99.90
5621;DHT22;2832;50.864;12.186;2023-08-08T12:33:56;18.50;99.90
5621;DHT22;2832;50.864;12.186;2023-08-08T12:36:39;18.50;99.90
5621;DHT22;2832;50.864;12.186;2023-08-08T12:39:17;18.50;99.90
5621;DHT22;2832;50.864;12.186;2023-08-08T12:41:46;18.50;99.90
5621;DHT22;2832;50.864;12.186;2023-08-08T12:44:16;18.60;99.90
5621;DHT22;2832;50.864;12.186;2023-08-08T12:46:44;18.60;99.90
5621;DHT22;2832;50.864;12.186;2023-08-08T12:49:16;18.60;99.90
5621;DHT22;2832;50.864;12.186;2023-08-08T12:51:49;18.50;99.90
5621;DHT22;2832;50.864;12.186;2023-08-08T12:54:23;18.60;99.90
5621;DHT22;2832;50.864;12.186;2023-08-08T12:57:08;18.60;99.90
5621;DHT22;2832;50.864;12.186;2023-08-08T12:59:38;18.60;99.90
5621;DHT22;2832;50.864;12.186;2023-08-08T13:02:09;18.60;99.90
5621;DHT22;2832;50.864;12.186;2023-08-08T13:04:42;18.60;99.90
5621;DHT22;2832;50.864;12.186;2023-08-08T13:07:16;18.60;99.90
5621;DHT22;2832;50.864;12.186;2023-08-08T13:09:52;18.70;99.90
5621;DHT22;2832;50.864;12.186;2023-08-08T13:12:23;18.70;99.90
5621;DHT22;2832;50.864;12.186;2023-08-08T13:14:51;18.70;99.90
5621;DHT22;2832;50.864;12.186;2023-08-08T13:17:23;18.70;99.90
5621;DHT22;2832;50.864;12.186;2023-08-08T13:23:31;18.70;99.90
5621;DHT22;2832;50.864;12.186;2023-08-08T13:26:11;18.70;99.90
5621;DHT22;2832;50.864;12.186;2023-08-08T13:28:50;18.80;99.90
5621;DHT22;2832;50.864;12.186;2023-08-08T13:31:25;18.80;99.90
5621;DHT22;2832;50.864;12.186;2023-08-08T13:33:54;18.80;99.90
5621;DHT22;2832;50.864;12.186;2023-08-08T13:36:23;18.80;99.90
5621;DHT22;2832;50.864;12.186;2023-08-08T13:38:56;18.90;99.90
5621;DHT22;2832;50.864;12.186;2023-08-08T13:41:25;18.80;99.90
5621;DHT22;2832;50.864;12.186;2023-08-08T13:43:53;18.80;99.90
5621;DHT22;2832;50.864;12.186;2023-08-08T13:46:21;18.90;99.90
5621;DHT22;2832;50.864;12.186;2023-08-08T13:48:51;18.90;99.90
5621;DHT22;2832;50.864;12.186;2023-08-08T13:51:20;18.90;99.90
5621;DHT22;2832;50.864;12.186;2023-08-08T13:53:58;18.90;99.90
5621;DHT22;2832;50.864;12.186;2023-08-08T13:56:30;18.90;99.90
5621;DHT22;2832;50.864;12.186;2023-08-08T13:59:00;19.00;99.90
5621;DHT22;2832;50.864;12.186;2023-08-08T14:02:01;19.00;99.90
5621;DHT22;2832;50.864;12.186;2023-08-08T14:04:19;19.00;99.90
5621;DHT22;2832;50.864;12.186;2023-08-08T14:06:49;18.90;99.90
5621;DHT22;2832;50.864;12.186;2023-08-08T14:09:21;18.90;99.90
5621;DHT22;2832;50.864;12.186;2023-08-08T14:11:54;18.90;99.90
5621;DHT22;2832;50.864;12.186;2023-08-08T14:14:26;19.00;99.90
5621;DHT22;2832;50.864;12.186;2023-08-08T14:16:55;19.00;99.90
5621;DHT22;2832;50.864;12.186;2023-08-08T14:19:24;19.00;99.90
5621;DHT22;2832;50.864;12.186;2023-08-08T14:21:55;19.00;99.90
5621;DHT22;2832;50.864;12.186;2023-08-08T14:24:30;19.10;99.90
5621;DHT22;2832;50.864;12.186;2023-08-08T14:26:58;19.10;99.90
5621;DHT22;2832;50.864;12.186;2023-08-08T14:29:27;19.10;99.90
5621;DHT22;2832;50.864;12.186;2023-08-08T14:31:55;19.10;99.90
5621;DHT22;2832;50.864;12.186;2023-08-08T14:34:29;19.10;99.90
5621;DHT22;2832;50.864;12.186;2023-08-08T14:37:00;19.10;99.90
5621;DHT22;2832;50.864;12.186;2023-08-08T14:39:39;19.20;99.90
5621;DHT22;2832;50.864;12.186;2023-08-08T14:42:16;19.20;99.90
5621;DHT22;2832;50.864;12.186;2023-08-08T14:44:45;19.20;99.90
5621;DHT22;2832;50.864;12.186;2023-08-08T14:47:16;19.10;99.90
5621;DHT22;2832;50.864;12.186;2023-08-08T14:49:48;19.20;99.90
5621;DHT22;2832;50.864;12.186;2023-08-08T14:52:23;19.10;99.90
5621;DHT22;2832;50.864;12.186;2023-08-08T14:54:54;19.20;99.90
5621;DHT22;2832;50.864;12.186;2023-08-08T14:57:22;19.20;99.90
5621;DHT22;2832;50.864;12.186;2023-08-08T14:59:51;19.20;99.90
5621;DHT22;2832;50.864;12.186;2023-08-08T15:02:22;19.30;99.90
5621;DHT22;2832;50.864;12.186;2023-08-08T15:04:50;19.30;99.90
5621;DHT22;2832;50.864;12.186;2023-08-08T15:07:18;19.30;99.90
5621;DHT22;2832;50.864;12.186;2023-08-08T15:09:47;19.30;99.90
5621;DHT22;2832;50.864;12.186;2023-08-08T15:12:18;19.30;99.90
5621;DHT22;2832;50.864;12.186;2023-08-08T15:14:48;19.30;99.90
5621;DHT22;2832;50.864;12.186;2023-08-08T15:17:20;19.30;99.90
5621;DHT22;2832;50.864;12.186;2023-08-08T15:19:53;19.30;99.90
5621;DHT22;2832;50.864;12.186;2023-08-08T15:22:30;19.30;99.90
5621;DHT22;2832;50.864;12.186;2023-08-08T15:25:17;19.30;99.90
5621;DHT22;2832;50.864;12.186;2023-08-08T15:27:51;19.30;99.90
5621;DHT22;2832;50.864;12.186;2023-08-08T15:30:19;19.40;99.90
5621;DHT22;2832;50.864;12.186;2023-08-08T15:32:47;19.30;99.90
5621;DHT22;2832;50.864;12.186;2023-08-08T15:35:16;19.40;99.90
5621;DHT22;2832;50.864;12.186;2023-08-08T15:37:44;19.30;99.90
5621;DHT22;2832;50.864;12.186;2023-08-08T15:40:12;19.30;99.90
5621;DHT22;2832;50.864;12.186;2023-08-08T15:42:41;19.40;99.90
5621;DHT22;2832;50.864;12.186;2023-08-08T15:45:13;19.40;99.90
5621;DHT22;2832;50.864;12.186;2023-08-08T15:47:41;19.50;99.90
5621;DHT22;2832;50.864;12.186;2023-08-08T15:50:10;19.40;99.90
5621;DHT22;2832;50.864;12.186;2023-08-08T15:52:38;19.40;99.90
5621;DHT22;2832;50.864;12.186;2023-08-08T15:55:06;19.40;99.90
5621;DHT22;2832;50.864;12.186;2023-08-08T15:57:35;19.40;99.90
5621;DHT22;2832;50.864;12.186;2023-08-08T16:00:05;19.40;99.90
5621;DHT22;2832;50.864;12.186;2023-08-08T16:02:35;19.50;99.90
5621;DHT22;2832;50.864;12.186;2023-08-08T16:05:03;19.40;99.90
5621;DHT22;2832;50.864;12.186;2023-08-08T16:07:32;19.40;99.90
5621;DHT22;2832;50.864;12.186;2023-08-08T16:10:02;19.40;99.90
5621;DHT22;2832;50.864;12.186;2023-08-08T16:12:30;19.40;99.90
5621;DHT22;2832;50.864;12.186;2023-08-08T16:14:58;19.50;99.90
5621;DHT22;2832;50.864;12.186;2023-08-08T16:17:28;19.50;99.90
5621;DHT22;2832;50.864;12.186;2023-08-08T16:19:57;19.50;99.90
5621;DHT22;2832;50.864;12.186;2023-08-08T16:22:26;19.50;99.90